Time;durP1;ratioP1;P1;durP2;ratioP2;P2;SDS_P1;SDS_P2;PMS_P1;PMS_P2;Temp;Humidity;BMP_temperature;BMP_pressure;BME280_temperature;BME280_humidity;BME280_pressure;Samples;Min_cycle;Max_cycle;Signal;HPM_P1;HPM_P2
2022/04/26 03:43:17;;;;;;;3.60;2.37;;;;;;;;;;20879931;28;20214;-83
2022/04/26 03:53:20;;;;;;;4.23;2.60;;;;;;;;;;20877524;28;20225;-83
2022/04/26 04:03:22;;;;;;;4.27;2.60;;;;;;;;;;20859121;28;20244;-83
2022/04/26 04:13:24;;;;;;;4.47;2.37;;;;;;;;;;20817504;28;20276;-83
2022/04/26 04:23:26;;;;;;;2.40;2.00;;;;;;;;;;20791263;28;20289;-84
2022/04/26 04:33:28;;;;;;;4.43;1.83;;;;;;;;;;20791789;28;20219;-83
2022/04/26 04:43:30;;;;;;;5.37;2.60;;;;;;;;;;20890808;28;20254;-83
2022/04/26 04:53:32;;;;;;;2.07;1.63;;;;;;;;;;20905863;28;20234;-83
2022/04/26 05:03:34;;;;;;;2.37;1.50;;;;;;;;;;20871584;28;20210;-83
2022/04/26 05:13:35;;;;;;;3.47;1.90;;;;;;;;;;20904942;28;20226;-80
2022/04/26 05:33:59;;;;;;;3.60;2.43;;;;;;;;;;20887276;28;20222;-82
2022/04/26 05:44:00;;;;;;;5.17;3.30;;;;;;;;;;20901125;28;20218;-84
2022/04/26 05:54:02;;;;;;;5.63;3.63;;;;;;;;;;20866432;28;20781;-84
2022/04/26 06:04:05;;;;;;;4.27;2.87;;;;;;;;;;20883352;28;20210;-84
2022/04/26 06:14:07;;;;;;;3.37;2.57;;;;;;;;;;20866039;28;20857;-84
2022/04/26 06:24:09;;;;;;;4.77;2.97;;;;;;;;;;20882031;28;20299;-84
2022/04/26 06:34:10;;;;;;;4.73;2.97;;;;;;;;;;20864239;28;20213;-82
2022/04/26 06:44:12;;;;;;;4.13;2.93;;;;;;;;;;20888113;28;20213;-81
2022/04/26 06:54:15;;;;;;;5.23;3.20;;;;;;;;;;20908917;28;20225;-83
2022/04/26 07:04:17;;;;;;;6.37;3.93;;;;;;;;;;20945141;28;20229;-82
2022/04/26 07:14:20;;;;;;;4.37;3.47;;;;;;;;;;20911846;28;20280;-81
2022/04/26 07:24:21;;;;;;;6.53;4.53;;;;;;;;;;20871439;28;20654;-83
2022/04/26 07:34:24;;;;;;;5.33;4.10;;;;;;;;;;20859948;28;20711;-82
2022/04/26 07:44:26;;;;;;;5.13;4.00;;;;;;;;;;20881736;28;20687;-83
2022/04/26 07:54:28;;;;;;;5.33;3.93;;;;;;;;;;20870300;28;20749;-83
2022/04/26 08:04:30;;;;;;;3.00;2.20;;;;;;;;;;20888375;28;20272;-83
2022/04/26 08:14:32;;;;;;;3.90;2.70;;;;;;;;;;20858490;28;20242;-83
2022/04/26 08:34:54;;;;;;;3.17;2.40;;;;;;;;;;20873682;28;20229;-85
2022/04/26 08:44:56;;;;;;;3.30;2.33;;;;;;;;;;20891179;28;20206;-84
2022/04/26 08:54:58;;;;;;;3.47;2.33;;;;;;;;;;20971837;28;20221;-84
2022/04/26 09:05:08;;;;;;;3.53;2.53;;;14.00;99.90;;;;;;20895652;28;20210;-82
2022/04/26 09:15:14;;;;;;;2.67;1.80;;;;;;;;;;20788697;28;20230;-83
2022/04/26 09:25:15;;;;;;;3.37;1.67;;;;;;;;;;20888543;28;20232;-82
2022/04/26 09:35:22;;;;;;;1.50;1.00;;;12.70;99.90;;;;;;20885849;28;20283;-83
2022/04/26 09:45:25;;;;;;;1.80;0.93;;;;;;;;;;20869441;28;20607;-84
2022/04/26 09:55:27;;;;;;;1.40;1.00;;;12.20;99.90;;;;;;20928923;28;20797;-84
2022/04/26 10:05:31;;;;;;;1.70;1.00;;;;;;;;;;20889475;28;20841;-84
2022/04/26 10:15:34;;;;;;;1.30;0.83;;;;;;;;;;20895284;28;20234;-84
2022/04/26 10:25:37;;;;;;;2.03;0.90;;;;;;;;;;20896070;28;20225;-83
2022/04/26 10:35:38;;;;;;;1.80;0.73;;;;;;;;;;20853499;28;20596;-83
2022/04/26 10:46:00;;;;;;;1.70;1.17;;;;;;;;;;20928911;28;20688;-83
2022/04/26 10:56:02;;;;;;;1.50;1.00;;;;;;;;;;20896280;28;20584;-85
2022/04/26 11:06:06;;;;;;;1.70;0.97;;;;;;;;;;20949799;28;20248;-84
2022/04/26 11:16:13;;;;;;;1.70;1.03;;;;;;;;;;20919407;28;20298;-84
2022/04/26 11:36:37;;;;;;;1.30;0.83;;;13.40;99.90;;;;;;20912213;28;20229;-82
2022/04/26 11:46:39;;;;;;;0.90;0.60;;;;;;;;;;20854949;28;20222;-83
2022/04/26 11:56:43;;;;;;;1.37;0.70;;;14.40;99.90;;;;;;20879048;28;20291;-83
2022/04/26 12:18:14;;;;;;;1.17;0.60;;;14.50;99.90;;;;;;20894416;28;20678;-83
2022/04/26 12:28:16;;;;;;;0.70;0.57;;;;;;;;;;20844864;28;20291;-83
2022/04/26 12:38:18;;;;;;;1.90;0.73;;;;;;;;;;20860251;28;20272;-82
2022/04/26 12:58:44;;;;;;;1.53;0.90;;;;;;;;;;20904571;28;20205;-83
2022/04/26 13:08:48;;;;;;;1.47;0.97;;;;;;;;;;20927206;28;20221;-83
2022/04/26 13:18:49;;;;;;;1.10;0.77;;;;;;;;;;20922447;28;20581;-83
2022/04/26 13:28:51;;;;;;;0.93;0.60;;;;;;;;;;20871466;28;20579;-83
2022/04/26 13:38:53;;;;;;;0.80;0.60;;;;;;;;;;20942054;28;20217;-87
2022/04/26 13:48:54;;;;;;;0.70;0.50;;;;;;;;;;20927421;28;20271;-84
2022/04/26 13:58:56;;;;;;;0.50;0.40;;;;;;;;;;20880528;28;20547;-84
2022/04/26 14:08:58;;;;;;;0.60;0.50;;;;;;;;;;20899863;28;20229;-83
2022/04/26 14:29:21;;;;;;;1.53;0.47;;;;;;;;;;20857181;28;20242;-82
2022/04/26 14:39:23;;;;;;;0.40;0.30;;;;;;;;;;20894733;28;20201;-83
2022/04/26 14:49:25;;;;;;;0.50;0.40;;;;;;;;;;20899360;28;20625;-82
2022/04/26 14:59:26;;;;;;;0.40;0.30;;;;;;;;;;20923997;28;20206;-83
2022/04/26 15:09:43;;;;;;;0.50;0.33;;;;;;;;;;20932036;28;20695;-82
2022/04/26 15:19:48;;;;;;;0.37;0.33;;;;;;;;;;20859540;28;20222;-82
2022/04/26 15:29:50;;;;;;;3.60;0.40;;;;;;;;;;20848761;28;20272;-82
2022/04/26 15:39:55;;;;;;;0.73;0.30;;;;;;;;;;20853713;28;20215;-81
2022/04/26 15:49:57;;;;;;;0.20;0.20;;;;;;;;;;20964068;28;20205;-82
2022/04/26 16:00:00;;;;;;;0.30;0.30;;;;;;;;;;20931930;28;20209;-82
2022/04/26 16:20:29;;;;;;;0.83;0.50;;;;;;;;;;20879477;28;20229;-81
2022/04/26 16:30:31;;;;;;;0.40;0.33;;;12.90;99.90;;;;;;20880706;28;20230;-81
2022/04/26 16:40:34;;;;;;;0.50;0.40;;;;;;;;;;20919241;28;20221;-82
2022/04/26 16:50:36;;;;;;;0.40;0.37;;;;;;;;;;20911883;28;20600;-83
2022/04/26 17:00:41;;;;;;;0.57;0.30;;;;;;;;;;20923005;28;20748;-86
2022/04/26 17:10:43;;;;;;;0.83;0.50;;;;;;;;;;20932247;28;20209;-85
2022/04/26 17:20:45;;;;;;;0.87;0.60;;;;;;;;;;20884489;28;20230;-84
2022/04/26 17:30:48;;;;;;;0.87;0.50;;;;;;;;;;20877669;28;20219;-84
2022/04/26 17:40:50;;;;;;;0.80;0.50;;;;;;;;;;20816984;28;20215;-84
2022/04/26 17:50:51;;;;;;;1.03;0.60;;;;;;;;;;20862636;28;20225;-82
2022/04/26 18:00:54;;;;;;;1.60;0.80;;;;;;;;;;20905728;28;20272;-81
2022/04/26 18:10:57;;;;;;;1.37;0.90;;;;;;;;;;20893528;28;20592;-80
2022/04/26 18:21:01;;;;;;;0.80;0.60;;;;;;;;;;20890152;28;20229;-81
2022/04/26 18:31:04;;;;;;;0.90;0.63;;;;;;;;;;20887037;28;20221;-81
2022/04/26 18:41:08;;;;;;;2.27;1.10;;;;;;;;;;20953167;28;20263;-80
2022/04/26 18:51:10;;;;;;;1.63;1.00;;;12.20;99.90;;;;;;20986887;28;20229;-80
2022/04/26 19:01:12;;;;;;;1.57;0.97;;;;;;;;;;20951741;28;20694;-82
2022/04/26 19:21:36;;;;;;;2.30;1.23;;;;;;;;;;20800709;28;20222;-83
2022/04/26 19:31:40;;;;;;;1.90;1.37;;;;;;;;;;20901101;28;20307;-87
2022/04/26 19:41:43;;;;;;;2.00;1.33;;;;;;;;;;20859152;28;20221;-81
2022/04/26 19:51:44;;;;;;;1.27;0.80;;;;;;;;;;20918870;28;20819;-84
2022/04/26 20:01:46;;;;;;;2.07;0.90;;;;;;;;;;20880807;28;20218;-83
2022/04/26 20:11:48;;;;;;;1.20;0.80;;;;;;;;;;20824194;28;20300;-82
2022/04/26 20:21:50;;;;;;;0.90;0.60;;;;;;;;;;20838986;28;20295;-83
2022/04/26 20:31:54;;;;;;;1.00;0.60;;;;;;;;;;20884118;28;20218;-82
2022/04/26 20:41:56;;;;;;;0.43;0.30;;;;;;;;;;20877390;28;20222;-82
2022/04/26 20:51:58;;;;;;;0.90;0.57;;;;;;;;;;20848354;28;20269;-82
2022/04/26 21:02:00;;;;;;;1.23;0.70;;;;;;;;;;20904166;28;20202;-82
2022/04/26 21:12:01;;;;;;;1.37;0.60;;;;;;;;;;20888419;28;20249;-82
2022/04/26 21:22:03;;;;;;;1.00;0.57;;;;;;;;;;20894673;28;20257;-83
2022/04/26 21:32:05;;;;;;;1.77;0.60;;;;;;;;;;20902866;28;20249;-82
2022/04/26 21:42:08;;;;;;;1.00;0.60;;;;;;;;;;20871834;28;20684;-81
2022/04/26 21:52:10;;;;;;;0.97;0.70;;;;;;;;;;20901446;28;20292;-82
2022/04/26 22:02:13;;;;;;;1.13;0.80;;;;;;;;;;20886794;28;20723;-83
2022/04/26 22:12:15;;;;;;;1.53;0.93;;;;;;;;;;20897066;28;20251;-83
2022/04/26 22:22:20;;;;;;;1.33;0.90;;;;;;;;;;20961127;28;20232;-82
2022/04/26 22:32:22;;;;;;;1.63;1.10;;;;;;;;;;20949807;28;20233;-82
2022/04/26 22:42:25;;;;;;;1.40;1.10;;;;;;;;;;20965705;28;20201;-84
2022/04/26 22:52:27;;;;;;;1.50;1.07;;;;;;;;;;20964342;28;20259;-84
2022/04/26 23:02:29;;;;;;;1.20;0.87;;;;;;;;;;20946407;28;20209;-84
2022/04/26 23:12:31;;;;;;;1.77;1.07;;;;;;;;;;20945090;28;20299;-84
2022/04/26 23:22:34;;;;;;;1.90;1.23;;;;;;;;;;20927686;28;20288;-83
2022/04/26 23:32:36;;;;;;;1.50;0.90;;;;;;;;;;20878616;28;20242;-83
2022/04/26 23:42:38;;;;;;;2.30;1.20;;;;;;;;;;20859907;28;20737;-84
2022/04/26 23:52:55;;;;;;;2.03;1.10;;;;;;;;;;20875064;28;20226;-83
